createdAt,value
2019-05-18T00:00:48.760Z,35.03
2019-05-18T00:03:19.636Z,25.20
2019-05-18T00:05:47.746Z,24.87
2019-05-18T00:08:14.546Z,25.13
2019-05-18T00:10:43.086Z,18.70
2019-05-18T00:13:10.111Z,18.47
2019-05-18T00:15:36.948Z,17.10
2019-05-18T00:18:04.009Z,14.70
2019-05-18T00:20:31.140Z,26.30
2019-05-18T00:22:58.063Z,16.77
2019-05-18T00:25:24.832Z,22.57
2019-05-18T00:27:52.795Z,16.17
2019-05-18T00:30:19.774Z,17.60
2019-05-18T00:32:46.528Z,15.53
2019-05-18T00:35:16.175Z,17.50
2019-05-18T00:37:41.952Z,14.63
2019-05-18T00:40:10.089Z,18.73
2019-05-18T00:42:37.032Z,21.43
2019-05-18T00:45:08.259Z,22.00
2019-05-18T00:47:41.273Z,20.30
2019-05-18T00:50:05.570Z,16.70
2019-05-18T00:52:33.512Z,19.67
2019-05-18T00:55:00.093Z,19.13
2019-05-18T00:57:27.796Z,22.77
2019-05-18T00:59:55.666Z,18.13
2019-05-18T01:02:22.720Z,16.50
2019-05-18T01:04:49.343Z,16.27
2019-05-18T01:07:16.957Z,16.30
2019-05-18T01:09:43.729Z,19.47
2019-05-18T01:12:10.706Z,14.93
2019-05-18T01:14:37.503Z,17.33
2019-05-18T01:17:04.425Z,15.33
2019-05-18T01:19:31.156Z,14.60
2019-05-18T01:21:59.193Z,15.63
2019-05-18T01:24:28.617Z,15.23
2019-05-18T01:26:55.633Z,15.20
2019-05-18T01:29:22.436Z,15.80
2019-05-18T01:31:49.198Z,18.27
2019-05-18T01:34:15.845Z,16.00
2019-05-18T01:36:43.416Z,15.80
2019-05-18T01:39:10.007Z,15.20
2019-05-18T01:41:37.049Z,15.77
2019-05-18T01:44:03.756Z,19.23
2019-05-18T01:46:30.428Z,16.20
2019-05-18T01:48:57.017Z,15.53
2019-05-18T01:51:24.895Z,14.37
2019-05-18T01:53:51.483Z,17.27
2019-05-18T01:56:18.637Z,17.77
2019-05-18T01:58:45.767Z,14.27
2019-05-18T02:01:12.760Z,13.60
2019-05-18T02:03:40.520Z,14.87
2019-05-18T02:06:07.344Z,13.37
2019-05-18T02:08:33.907Z,16.93
2019-05-18T02:11:00.541Z,13.57
2019-05-18T02:13:28.404Z,15.20
2019-05-18T02:15:55.813Z,17.33
2019-05-18T02:18:40.913Z,17.43
2019-05-18T02:21:08.975Z,20.57
2019-05-18T02:23:35.616Z,15.00
2019-05-18T02:26:02.275Z,15.90
2019-05-18T02:28:31.753Z,16.43
2019-05-18T02:30:59.566Z,14.93
2019-05-18T02:33:26.240Z,20.37
2019-05-18T02:35:54.170Z,22.07
2019-05-18T02:38:20.771Z,17.80
2019-05-18T02:40:47.941Z,11.60
2019-05-18T02:43:15.574Z,13.90
2019-05-18T02:45:42.403Z,21.57
2019-05-18T02:48:09.451Z,12.83
2019-05-18T02:50:36.428Z,17.90
2019-05-18T02:53:03.605Z,16.77
2019-05-18T02:55:30.344Z,16.37
2019-05-18T02:57:56.986Z,21.53
2019-05-18T03:00:24.058Z,16.93
2019-05-18T03:02:51.940Z,18.63
2019-05-18T03:05:20.419Z,27.70
2019-05-18T03:07:47.470Z,21.23
2019-05-18T03:10:17.465Z,25.83
2019-05-18T03:12:44.395Z,17.73
2019-05-18T03:15:12.344Z,21.87
2019-05-18T03:17:40.092Z,16.07
2019-05-18T03:20:09.376Z,24.83
2019-05-18T03:22:36.498Z,19.00
2019-05-18T03:25:07.787Z,30.07
2019-05-18T03:27:35.627Z,22.83
2019-05-18T03:30:07.189Z,18.50
2019-05-18T03:32:34.228Z,20.30
2019-05-18T03:35:01.090Z,21.30
2019-05-18T03:37:27.781Z,23.00
2019-05-18T03:39:55.764Z,22.00
2019-05-18T03:42:22.372Z,21.17
2019-05-18T03:44:48.945Z,21.77
2019-05-18T03:47:16.871Z,21.70
2019-05-18T03:49:43.476Z,31.70
2019-05-18T03:52:10.071Z,34.70
2019-05-18T03:54:36.747Z,25.77
2019-05-18T03:57:03.596Z,22.70
2019-05-18T03:59:31.315Z,24.63
2019-05-18T04:01:58.071Z,23.33
2019-05-18T04:04:25.977Z,21.60
2019-05-18T04:06:52.579Z,25.40
2019-05-18T04:09:19.385Z,20.43
2019-05-18T04:11:46.164Z,26.03
2019-05-18T04:14:13.302Z,22.93
2019-05-18T04:16:40.009Z,27.00
2019-05-18T04:19:07.719Z,26.90
2019-05-18T04:21:34.396Z,24.37
2019-05-18T04:24:01.424Z,25.73
2019-05-18T04:26:28.790Z,23.57
2019-05-18T04:28:56.814Z,22.60
2019-05-18T04:31:23.397Z,25.47
2019-05-18T04:33:50.500Z,25.80
2019-05-18T04:36:17.659Z,28.37
2019-05-18T04:38:44.282Z,33.00
2019-05-18T04:41:10.857Z,28.20
2019-05-18T04:43:37.459Z,31.70
2019-05-18T04:46:04.203Z,32.97
2019-05-18T04:48:31.327Z,27.13
2019-05-18T04:50:59.152Z,28.80
2019-05-18T04:53:27.655Z,18.73
2019-05-18T04:55:56.799Z,15.80
2019-05-18T04:58:23.397Z,27.30
2019-05-18T05:00:51.265Z,32.63
2019-05-18T05:03:18.297Z,10.27
2019-05-18T05:05:44.945Z,11.27
2019-05-18T05:08:11.649Z,10.23
2019-05-18T05:10:38.256Z,9.80
2019-05-18T05:13:07.411Z,14.13
2019-05-18T05:15:34.436Z,18.20
2019-05-18T05:18:01.620Z,12.77
2019-05-18T05:20:28.706Z,12.77
2019-05-18T05:22:56.399Z,13.13
2019-05-18T05:25:26.058Z,12.40
2019-05-18T05:27:52.824Z,13.20
2019-05-18T05:30:21.351Z,10.97
2019-05-18T05:32:48.250Z,11.30
2019-05-18T05:35:15.076Z,10.27
2019-05-18T05:37:41.825Z,14.00
2019-05-18T05:40:08.904Z,12.47
2019-05-18T05:42:36.004Z,11.43
2019-05-18T05:45:06.656Z,9.53
2019-05-18T05:47:34.546Z,9.07
2019-05-18T05:50:01.348Z,12.63
2019-05-18T05:52:29.481Z,12.17
2019-05-18T05:54:56.059Z,6.93
2019-05-18T05:57:23.911Z,9.53
2019-05-18T05:59:51.753Z,11.37
2019-05-18T06:02:18.937Z,7.80
2019-05-18T06:04:45.790Z,6.60
2019-05-18T06:07:13.699Z,10.83
2019-05-18T06:09:40.295Z,6.23
2019-05-18T06:12:07.006Z,10.37
2019-05-18T06:14:34.151Z,7.90
2019-05-18T06:17:00.738Z,9.03
2019-05-18T06:19:27.283Z,6.00
2019-05-18T06:21:55.967Z,8.23
2019-05-18T06:24:24.233Z,6.77
2019-05-18T06:26:50.860Z,10.77
2019-05-18T06:29:18.858Z,6.60
2019-05-18T06:31:45.542Z,10.97
2019-05-18T06:34:12.408Z,6.93
2019-05-18T06:36:39.038Z,8.30
2019-05-18T06:39:07.891Z,6.83
2019-05-18T06:41:34.727Z,8.57
2019-05-18T06:44:02.909Z,9.73
2019-05-18T06:46:30.294Z,7.90
2019-05-18T06:49:00.986Z,7.73
2019-05-18T06:51:27.635Z,8.57
2019-05-18T06:53:54.486Z,8.43
2019-05-18T06:56:23.976Z,8.17
2019-05-18T06:58:54.192Z,9.80
2019-05-18T07:01:21.299Z,8.37
2019-05-18T07:03:48.129Z,8.93
2019-05-18T07:06:14.902Z,6.03
2019-05-18T07:08:41.555Z,12.87
2019-05-18T07:11:08.613Z,18.10
2019-05-18T07:13:35.300Z,12.70
2019-05-18T07:16:02.073Z,7.23
2019-05-18T07:18:30.285Z,9.77
2019-05-18T07:20:57.370Z,7.53
2019-05-18T07:23:24.633Z,16.37
2019-05-18T07:25:51.414Z,8.57
2019-05-18T07:28:18.310Z,11.50
2019-05-18T07:30:45.184Z,9.40
2019-05-18T07:33:12.486Z,8.43
2019-05-18T07:35:39.275Z,10.30
2019-05-18T07:38:06.123Z,8.03
2019-05-18T07:40:34.427Z,15.60
2019-05-18T07:43:02.561Z,7.80
2019-05-18T07:45:29.381Z,11.87
2019-05-18T07:47:56.152Z,11.13
2019-05-18T07:50:23.278Z,11.33
2019-05-18T07:52:52.608Z,7.97
2019-05-18T07:55:20.889Z,6.60
2019-05-18T07:57:47.863Z,8.57
2019-05-18T08:00:16.093Z,7.67
2019-05-18T08:02:42.901Z,9.03
2019-05-18T08:05:10.446Z,8.67
2019-05-18T08:07:40.288Z,13.87
2019-05-18T08:10:08.857Z,6.47
2019-05-18T08:12:36.986Z,7.40
2019-05-18T08:15:09.592Z,6.43
2019-05-18T08:17:36.467Z,10.53
2019-05-18T08:20:06.862Z,7.20
2019-05-18T08:22:33.418Z,9.67
2019-05-18T08:25:01.318Z,9.63
2019-05-18T08:27:28.004Z,11.83
2019-05-18T08:29:55.713Z,11.17
2019-05-18T08:32:22.392Z,10.87
2019-05-18T08:34:49.976Z,15.57
2019-05-18T08:37:17.918Z,9.60
2019-05-18T08:39:44.605Z,7.83
2019-05-18T08:42:12.672Z,7.53
2019-05-18T08:44:40.442Z,5.80
2019-05-18T08:47:07.221Z,8.80
2019-05-18T08:49:34.109Z,7.17
2019-05-18T08:52:08.277Z,5.10
2019-05-18T08:54:30.841Z,8.10
2019-05-18T08:56:57.694Z,9.57
2019-05-18T08:59:24.465Z,13.93
2019-05-18T09:01:51.701Z,9.97
2019-05-18T09:04:19.699Z,12.07
2019-05-18T09:06:47.534Z,6.57
2019-05-18T09:09:14.319Z,5.33
2019-05-18T09:11:42.658Z,4.60
2019-05-18T09:14:09.813Z,9.20
2019-05-18T09:16:37.590Z,5.47
2019-05-18T09:19:05.671Z,9.73
2019-05-18T09:21:32.258Z,7.00
2019-05-18T09:23:58.904Z,6.60
2019-05-18T09:26:26.721Z,8.20
2019-05-18T09:28:54.495Z,7.73
2019-05-18T09:31:21.333Z,4.80
2019-05-18T09:33:48.476Z,10.00
2019-05-18T09:36:17.196Z,5.50
2019-05-18T09:38:45.617Z,7.37
2019-05-18T09:41:12.984Z,6.70
2019-05-18T09:43:39.862Z,7.03
2019-05-18T09:46:06.654Z,5.23
2019-05-18T09:48:33.658Z,5.77
2019-05-18T09:51:00.483Z,10.97
2019-05-18T09:53:29.962Z,9.43
2019-05-18T09:55:55.940Z,6.13
2019-05-18T09:58:22.990Z,8.30
2019-05-18T10:00:52.284Z,6.43
2019-05-18T10:03:19.153Z,6.80
2019-05-18T10:05:46.244Z,8.77
2019-05-18T10:08:14.257Z,7.33
2019-05-18T10:10:41.536Z,10.20
2019-05-18T10:13:08.882Z,6.30
2019-05-18T10:15:35.498Z,9.67
2019-05-18T10:18:03.663Z,12.87
2019-05-18T10:20:30.670Z,6.10
2019-05-18T10:23:11.896Z,6.70
2019-05-18T10:25:27.115Z,7.87
2019-05-18T10:27:54.958Z,7.43
2019-05-18T10:30:22.263Z,7.00
2019-05-18T10:32:49.052Z,7.50
2019-05-18T10:35:16.684Z,9.63
2019-05-18T10:37:43.669Z,5.67
2019-05-18T10:40:11.781Z,9.03
2019-05-18T10:42:38.690Z,9.50
2019-05-18T10:45:07.999Z,10.37
2019-05-18T10:47:35.511Z,7.43
2019-05-18T10:50:05.197Z,8.50
2019-05-18T10:52:32.415Z,8.87
2019-05-18T10:54:59.272Z,9.20
2019-05-18T10:57:26.144Z,10.73
2019-05-18T10:59:54.012Z,11.70
2019-05-18T11:02:20.787Z,7.60
2019-05-18T11:04:47.403Z,6.90
2019-05-18T11:07:14.053Z,11.30
2019-05-18T11:09:42.227Z,9.43
2019-05-18T11:12:09.026Z,13.37
2019-05-18T11:14:35.750Z,10.03
2019-05-18T11:17:02.892Z,14.10
2019-05-18T11:19:29.742Z,9.33
2019-05-18T11:21:56.929Z,13.27
2019-05-18T11:24:24.045Z,9.07
2019-05-18T11:26:50.810Z,8.97
2019-05-18T11:29:17.542Z,8.57
2019-05-18T11:31:44.534Z,13.93
2019-05-18T11:34:11.332Z,8.97
2019-05-18T11:36:41.190Z,7.30
2019-05-18T11:39:08.000Z,10.83
2019-05-18T11:41:36.236Z,6.20
2019-05-18T11:44:04.962Z,10.03
2019-05-18T11:46:32.686Z,16.47
2019-05-18T11:49:00.575Z,13.17
2019-05-18T11:51:31.028Z,7.53
2019-05-18T11:53:58.729Z,7.50
2019-05-18T11:56:26.733Z,7.43
2019-05-18T11:58:54.487Z,6.13
2019-05-18T12:01:22.363Z,10.13
2019-05-18T12:03:49.034Z,7.70
2019-05-18T12:06:18.395Z,7.53
2019-05-18T12:08:44.998Z,7.40
2019-05-18T12:11:12.773Z,5.20
2019-05-18T12:13:39.373Z,13.33
2019-05-18T12:16:07.256Z,7.43
2019-05-18T12:18:33.945Z,13.33
2019-05-18T12:21:01.599Z,22.53
2019-05-18T12:23:28.696Z,6.80
2019-05-18T12:25:55.466Z,8.37
2019-05-18T12:28:22.208Z,10.13
2019-05-18T12:30:49.835Z,22.57
2019-05-18T12:33:17.686Z,5.83
2019-05-18T12:35:44.772Z,9.50
2019-05-18T12:38:11.813Z,5.63
2019-05-18T12:40:38.672Z,7.17
2019-05-18T12:43:05.456Z,6.27
2019-05-18T12:45:32.353Z,13.03
2019-05-18T12:47:59.183Z,4.93
2019-05-18T12:50:26.345Z,5.13
2019-05-18T12:52:53.525Z,10.67
2019-05-18T12:55:21.064Z,4.80
2019-05-18T12:57:47.880Z,4.13
2019-05-18T13:00:17.013Z,6.50
2019-05-18T13:02:43.868Z,4.60
2019-05-18T13:05:13.082Z,8.07
2019-05-18T13:07:41.980Z,9.10
2019-05-18T13:10:14.217Z,5.67
2019-05-18T13:12:41.141Z,6.53
2019-05-18T13:15:11.764Z,4.93
2019-05-18T13:17:39.915Z,7.27
2019-05-18T13:20:10.406Z,6.70
2019-05-18T13:22:38.543Z,8.20
2019-05-18T13:25:07.587Z,5.90
2019-05-18T13:27:39.538Z,7.80
2019-05-18T13:30:10.332Z,13.67
2019-05-18T13:32:37.071Z,15.67
2019-05-18T13:35:06.483Z,9.83
2019-05-18T13:37:34.274Z,6.20
2019-05-18T13:40:01.823Z,12.57
2019-05-18T13:42:31.437Z,8.87
2019-05-18T13:44:59.408Z,8.33
2019-05-18T13:47:27.156Z,4.97
2019-05-18T13:49:53.780Z,4.80
2019-05-18T13:52:20.451Z,6.13
2019-05-18T13:55:02.129Z,8.17
2019-05-18T13:57:17.635Z,7.87
2019-05-18T13:59:44.672Z,4.10
2019-05-18T14:02:12.905Z,6.80
2019-05-18T14:04:39.693Z,6.23
2019-05-18T14:07:07.080Z,5.70
2019-05-18T14:09:34.907Z,6.50
2019-05-18T14:12:01.946Z,6.57
2019-05-18T14:14:31.268Z,5.13
2019-05-18T14:16:57.956Z,3.67
2019-05-18T14:19:27.590Z,11.17
2019-05-18T14:21:54.622Z,9.33
2019-05-18T14:24:21.517Z,5.53
2019-05-18T14:26:49.212Z,5.37
2019-05-18T14:29:15.864Z,8.00
2019-05-18T14:31:43.016Z,5.73
2019-05-18T14:34:11.091Z,7.67
2019-05-18T14:36:40.476Z,6.93
2019-05-18T14:39:08.620Z,6.67
2019-05-18T14:41:35.645Z,5.40
2019-05-18T14:44:04.021Z,9.10
2019-05-18T14:46:31.065Z,11.73
2019-05-18T14:48:57.738Z,9.07
2019-05-18T14:51:24.338Z,7.00
2019-05-18T14:53:53.165Z,4.47
2019-05-18T14:56:21.228Z,5.70
2019-05-18T14:58:49.109Z,4.50
2019-05-18T15:01:18.772Z,12.93
2019-05-18T15:03:45.485Z,6.73
2019-05-18T15:06:12.016Z,7.30
2019-05-18T15:08:39.892Z,10.23
2019-05-18T15:11:07.850Z,8.37
2019-05-18T15:13:34.457Z,12.03
2019-05-18T15:16:01.567Z,6.13
2019-05-18T15:18:28.657Z,8.13
2019-05-18T15:20:55.308Z,6.10
2019-05-18T15:23:23.411Z,7.13
2019-05-18T15:25:54.180Z,5.07
2019-05-18T15:28:21.173Z,7.67
2019-05-18T15:31:59.506Z,6.20
2019-05-18T15:34:27.339Z,15.13
2019-05-18T15:36:54.028Z,7.33
2019-05-18T15:39:21.981Z,10.97
2019-05-18T15:41:51.109Z,5.73
2019-05-18T15:44:18.163Z,4.70
2019-05-18T15:46:45.193Z,7.10
2019-05-18T15:49:12.290Z,6.00
2019-05-18T15:51:39.365Z,7.23
2019-05-18T15:54:06.064Z,8.87
2019-05-18T15:56:34.199Z,2.97
2019-05-18T15:59:01.166Z,4.37
2019-05-18T16:01:30.252Z,6.03
2019-05-18T16:03:58.243Z,6.47
2019-05-18T16:06:26.030Z,4.83
2019-05-18T16:08:53.119Z,4.97
2019-05-18T16:11:19.811Z,5.07
2019-05-18T16:13:52.217Z,7.17
2019-05-18T16:16:19.500Z,12.90
2019-05-18T16:18:46.581Z,8.03
2019-05-18T16:21:13.575Z,5.50
2019-05-18T16:23:42.280Z,7.90
2019-05-18T16:26:21.172Z,8.57
2019-05-18T16:28:37.866Z,6.60
2019-05-18T16:31:04.539Z,6.40
2019-05-18T16:33:31.634Z,8.13
2019-05-18T16:35:58.671Z,10.83
2019-05-18T16:38:26.507Z,7.00
2019-05-18T16:40:53.298Z,8.03
2019-05-18T16:43:20.360Z,11.87
2019-05-18T16:45:47.152Z,6.57
2019-05-18T16:48:14.584Z,11.27
2019-05-18T16:50:41.943Z,10.73
2019-05-18T16:53:08.762Z,7.93
2019-05-18T16:55:36.796Z,9.33
2019-05-18T16:58:03.659Z,10.53
2019-05-18T17:00:30.880Z,6.40
2019-05-18T17:02:59.899Z,10.67
2019-05-18T17:05:27.083Z,7.03
2019-05-18T17:07:54.181Z,5.53
2019-05-18T17:10:21.068Z,9.87
2019-05-18T17:12:49.304Z,10.97
2019-05-18T17:15:16.909Z,7.63
2019-05-18T17:17:44.262Z,13.70
2019-05-18T17:20:13.328Z,6.07
2019-05-18T17:22:40.221Z,11.80
2019-05-18T17:25:07.629Z,7.10
2019-05-18T17:27:34.579Z,10.63
2019-05-18T17:30:03.317Z,9.80
2019-05-18T17:32:31.184Z,9.70
2019-05-18T17:34:58.659Z,9.57
2019-05-18T17:37:25.671Z,12.70
2019-05-18T17:39:52.349Z,12.03
2019-05-18T17:42:19.103Z,11.10
2019-05-18T17:44:46.168Z,11.73
2019-05-18T17:47:12.877Z,10.83
2019-05-18T17:49:40.049Z,11.43
2019-05-18T17:52:08.116Z,10.77
2019-05-18T17:54:34.871Z,9.33
2019-05-18T17:57:08.536Z,12.30
2019-05-18T17:59:30.363Z,8.97
2019-05-18T18:01:57.248Z,6.67
2019-05-18T18:04:24.122Z,6.07
2019-05-18T18:06:50.864Z,10.37
2019-05-18T18:09:17.930Z,9.53
2019-05-18T18:11:44.598Z,13.13
2019-05-18T18:14:11.856Z,24.63
2019-05-18T18:16:38.730Z,16.50
2019-05-18T18:19:05.484Z,12.83
2019-05-18T18:21:32.380Z,16.63
2019-05-18T18:23:59.328Z,9.93
2019-05-18T18:26:26.003Z,11.63
2019-05-18T18:28:52.912Z,9.57
2019-05-18T18:31:20.553Z,9.10
2019-05-18T18:33:47.375Z,15.00
2019-05-18T18:36:14.372Z,13.07
2019-05-18T18:38:41.045Z,11.73
2019-05-18T18:41:09.012Z,9.93
2019-05-18T18:43:38.025Z,11.90
2019-05-18T18:46:07.009Z,17.60
2019-05-18T18:48:33.739Z,12.03
2019-05-18T18:51:00.478Z,15.27
2019-05-18T18:53:27.378Z,14.77
2019-05-18T18:55:54.270Z,9.57
2019-05-18T18:58:21.343Z,14.20
2019-05-18T19:00:49.145Z,12.63
2019-05-18T19:03:17.034Z,13.70
2019-05-18T19:05:43.622Z,14.93
2019-05-18T19:08:10.696Z,17.40
2019-05-18T19:10:37.249Z,12.63
2019-05-18T19:13:04.250Z,18.27
2019-05-18T19:15:32.278Z,12.63
2019-05-18T19:17:59.193Z,14.30
2019-05-18T19:20:26.615Z,13.17
2019-05-18T19:22:53.464Z,12.20
2019-05-18T19:25:20.505Z,11.83
2019-05-18T19:27:54.481Z,8.80
2019-05-18T19:30:18.039Z,7.87
2019-05-18T19:32:46.184Z,12.07
2019-05-18T19:35:13.495Z,17.10
2019-05-18T19:37:41.427Z,10.40
2019-05-18T19:40:09.122Z,6.07
2019-05-18T19:42:36.309Z,7.37
2019-05-18T19:45:06.605Z,5.80
2019-05-18T19:47:34.204Z,6.80
2019-05-18T19:50:01.103Z,8.30
2019-05-18T19:52:27.895Z,7.37
2019-05-18T19:54:54.585Z,12.87
2019-05-18T19:57:24.247Z,11.07
2019-05-18T19:59:52.521Z,11.07
2019-05-18T20:02:20.707Z,7.50
2019-05-18T20:05:05.563Z,8.60
2019-05-18T20:07:16.606Z,9.23
2019-05-18T20:09:44.004Z,9.53
2019-05-18T20:12:12.353Z,8.37
2019-05-18T20:14:40.575Z,7.27
2019-05-18T20:17:10.302Z,13.13
2019-05-18T20:19:39.548Z,10.20
2019-05-18T20:22:07.527Z,11.27
2019-05-18T20:24:34.598Z,5.97
2019-05-18T20:27:01.773Z,9.33
2019-05-18T20:29:29.766Z,7.80
2019-05-18T20:31:58.320Z,17.97
2019-05-18T20:34:25.881Z,7.53
2019-05-18T20:36:52.608Z,7.20
2019-05-18T20:39:19.476Z,8.80
2019-05-18T20:41:47.127Z,8.57
2019-05-18T20:44:13.774Z,5.27
2019-05-18T20:46:41.693Z,12.23
2019-05-18T20:49:08.833Z,6.87
2019-05-18T20:51:35.603Z,9.33
2019-05-18T20:54:02.818Z,7.37
2019-05-18T20:56:30.786Z,9.30
2019-05-18T20:58:58.730Z,7.77
2019-05-18T21:01:27.002Z,9.90
2019-05-18T21:03:53.935Z,8.40
2019-05-18T21:06:20.650Z,12.60
2019-05-18T21:08:47.537Z,6.17
2019-05-18T21:11:14.572Z,10.43
2019-05-18T21:13:41.211Z,7.27
2019-05-18T21:16:08.267Z,7.07
2019-05-18T21:18:35.107Z,8.97
2019-05-18T21:21:01.853Z,9.33
2019-05-18T21:23:28.686Z,8.63
2019-05-18T21:25:55.898Z,9.70
2019-05-18T21:28:22.790Z,10.90
2019-05-18T21:30:49.392Z,9.67
2019-05-18T21:33:16.459Z,8.70
2019-05-18T21:35:43.226Z,10.93
2019-05-18T21:38:10.455Z,7.77
2019-05-18T21:40:37.503Z,11.80
2019-05-18T21:43:04.990Z,9.40
2019-05-18T21:45:32.246Z,7.90
2019-05-18T21:47:59.087Z,16.73
2019-05-18T21:50:25.797Z,11.33
2019-05-18T21:52:53.592Z,8.53
2019-05-18T21:55:20.642Z,11.87
2019-05-18T21:57:47.385Z,8.90
2019-05-18T22:00:17.207Z,6.70
2019-05-18T22:02:45.985Z,5.93
2019-05-18T22:05:13.653Z,6.60
2019-05-18T22:07:40.426Z,10.97
2019-05-18T22:10:24.930Z,12.53
2019-05-18T22:12:42.337Z,11.07
2019-05-18T22:15:09.926Z,9.70
2019-05-18T22:17:38.984Z,11.70
2019-05-18T22:20:06.547Z,10.70
2019-05-18T22:22:34.258Z,10.00
2019-05-18T22:25:02.014Z,9.10
2019-05-18T22:27:30.019Z,6.30
2019-05-18T22:29:58.146Z,9.73
2019-05-18T22:32:24.946Z,12.20
2019-05-18T22:34:51.556Z,12.93
2019-05-18T22:37:18.690Z,6.50
2019-05-18T22:39:45.258Z,7.53
2019-05-18T22:42:12.067Z,8.23
2019-05-18T22:44:38.833Z,10.20
2019-05-18T22:47:06.949Z,11.30
2019-05-18T22:49:34.592Z,15.43
2019-05-18T22:52:02.343Z,6.80
2019-05-18T22:55:44.130Z,6.73
2019-05-18T22:58:10.906Z,8.40
2019-05-18T23:00:37.630Z,10.03
2019-05-18T23:03:04.507Z,9.83
2019-05-18T23:05:31.241Z,7.40
2019-05-18T23:07:59.275Z,6.17
2019-05-18T23:10:26.325Z,8.30
2019-05-18T23:12:53.108Z,11.13
2019-05-18T23:15:21.134Z,14.23
2019-05-18T23:17:48.075Z,12.93
2019-05-18T23:20:15.998Z,14.67
2019-05-18T23:22:44.239Z,14.53
2019-05-18T23:25:11.349Z,24.03
2019-05-18T23:27:38.130Z,15.37
2019-05-18T23:30:07.454Z,7.77
2019-05-18T23:32:34.183Z,10.53
2019-05-18T23:35:00.849Z,9.07
2019-05-18T23:37:28.022Z,12.53
2019-05-18T23:39:54.660Z,9.20
2019-05-18T23:42:22.354Z,6.17
2019-05-18T23:44:48.903Z,14.87
2019-05-18T23:47:15.919Z,20.83
2019-05-18T23:49:42.617Z,12.53
2019-05-18T23:52:10.037Z,9.87
2019-05-18T23:54:36.640Z,4.93
2019-05-18T23:57:03.374Z,13.73
2019-05-18T23:59:29.995Z,10.30
